sensor_id;sensor_type;location;lat;lon;timestamp;temperature;humidity
324;DHT22;149;51.094;17.002;2023-03-05T00:00:22;3.00;99.90
324;DHT22;149;51.094;17.002;2023-03-05T00:02:49;2.90;99.90
324;DHT22;149;51.094;17.002;2023-03-05T00:05:16;2.90;99.90
324;DHT22;149;51.094;17.002;2023-03-05T00:07:43;3.00;99.90
324;DHT22;149;51.094;17.002;2023-03-05T00:10:10;3.30;99.90
324;DHT22;149;51.094;17.002;2023-03-05T00:12:37;3.30;99.90
324;DHT22;149;51.094;17.002;2023-03-05T00:15:05;3.40;99.90
324;DHT22;149;51.094;17.002;2023-03-05T00:17:32;3.70;99.90
324;DHT22;149;51.094;17.002;2023-03-05T00:19:59;3.70;99.90
324;DHT22;149;51.094;17.002;2023-03-05T00:22:28;3.80;99.90
324;DHT22;149;51.094;17.002;2023-03-05T00:24:54;3.90;99.90
324;DHT22;149;51.094;17.002;2023-03-05T00:27:21;4.00;99.90
324;DHT22;149;51.094;17.002;2023-03-05T00:29:48;4.00;99.90
324;DHT22;149;51.094;17.002;2023-03-05T00:32:15;4.00;99.90
324;DHT22;149;51.094;17.002;2023-03-05T00:34:43;4.00;99.90
324;DHT22;149;51.094;17.002;2023-03-05T00:37:10;4.00;99.90
324;DHT22;149;51.094;17.002;2023-03-05T00:39:37;3.90;99.90
324;DHT22;149;51.094;17.002;2023-03-05T00:42:04;3.90;99.90
324;DHT22;149;51.094;17.002;2023-03-05T00:44:31;3.90;99.90
324;DHT22;149;51.094;17.002;2023-03-05T00:46:58;3.80;99.90
324;DHT22;149;51.094;17.002;2023-03-05T00:49:25;3.90;99.90
324;DHT22;149;51.094;17.002;2023-03-05T00:51:52;3.60;99.90
324;DHT22;149;51.094;17.002;2023-03-05T00:54:19;3.80;99.90
324;DHT22;149;51.094;17.002;2023-03-05T00:56:47;4.00;99.90
324;DHT22;149;51.094;17.002;2023-03-05T00:59:14;4.20;99.90
324;DHT22;149;51.094;17.002;2023-03-05T01:01:42;4.30;99.90
324;DHT22;149;51.094;17.002;2023-03-05T01:04:09;4.20;99.90
324;DHT22;149;51.094;17.002;2023-03-05T01:06:36;4.30;99.90
324;DHT22;149;51.094;17.002;2023-03-05T01:09:08;4.20;99.90
324;DHT22;149;51.094;17.002;2023-03-05T01:11:35;4.20;99.90
324;DHT22;149;51.094;17.002;2023-03-05T01:14:02;4.20;99.90
324;DHT22;149;51.094;17.002;2023-03-05T01:16:29;4.30;99.90
324;DHT22;149;51.094;17.002;2023-03-05T01:18:57;4.20;99.90
324;DHT22;149;51.094;17.002;2023-03-05T01:21:23;4.30;99.90
324;DHT22;149;51.094;17.002;2023-03-05T01:23:50;4.20;99.90
324;DHT22;149;51.094;17.002;2023-03-05T01:26:17;4.20;99.90
324;DHT22;149;51.094;17.002;2023-03-05T01:28:44;4.00;99.90
324;DHT22;149;51.094;17.002;2023-03-05T01:31:12;4.10;99.90
324;DHT22;149;51.094;17.002;2023-03-05T01:33:39;4.10;99.90
324;DHT22;149;51.094;17.002;2023-03-05T01:36:08;4.20;99.90
324;DHT22;149;51.094;17.002;2023-03-05T01:38:38;4.10;99.90
324;DHT22;149;51.094;17.002;2023-03-05T01:41:05;4.10;99.90
324;DHT22;149;51.094;17.002;2023-03-05T01:43:32;4.00;99.90
324;DHT22;149;51.094;17.002;2023-03-05T01:49:01;4.10;99.90
324;DHT22;149;51.094;17.002;2023-03-05T01:51:33;4.00;99.90
324;DHT22;149;51.094;17.002;2023-03-05T01:54:02;3.80;99.90
324;DHT22;149;51.094;17.002;2023-03-05T01:56:31;3.90;99.90
324;DHT22;149;51.094;17.002;2023-03-05T01:58:58;3.90;99.90
324;DHT22;149;51.094;17.002;2023-03-05T02:01:32;3.80;99.90
324;DHT22;149;51.094;17.002;2023-03-05T02:04:00;3.90;99.90
324;DHT22;149;51.094;17.002;2023-03-05T02:06:28;4.00;99.90
324;DHT22;149;51.094;17.002;2023-03-05T02:08:56;4.00;99.90
324;DHT22;149;51.094;17.002;2023-03-05T02:11:22;3.80;99.90
324;DHT22;149;51.094;17.002;2023-03-05T02:13:50;3.80;99.90
324;DHT22;149;51.094;17.002;2023-03-05T02:16:17;3.90;99.90
324;DHT22;149;51.094;17.002;2023-03-05T02:18:43;3.90;99.90
324;DHT22;149;51.094;17.002;2023-03-05T02:21:11;4.00;99.90
324;DHT22;149;51.094;17.002;2023-03-05T02:23:38;3.90;99.90
324;DHT22;149;51.094;17.002;2023-03-05T02:26:07;3.50;99.90
324;DHT22;149;51.094;17.002;2023-03-05T02:28:48;3.10;99.90
324;DHT22;149;51.094;17.002;2023-03-05T02:31:19;2.90;99.90
324;DHT22;149;51.094;17.002;2023-03-05T02:33:47;2.80;99.90
324;DHT22;149;51.094;17.002;2023-03-05T02:36:14;2.50;99.90
324;DHT22;149;51.094;17.002;2023-03-05T02:38:42;2.20;99.90
324;DHT22;149;51.094;17.002;2023-03-05T02:41:09;2.30;99.90
324;DHT22;149;51.094;17.002;2023-03-05T02:43:37;2.30;99.90
324;DHT22;149;51.094;17.002;2023-03-05T02:46:04;2.20;99.90
324;DHT22;149;51.094;17.002;2023-03-05T02:48:32;2.20;99.90
324;DHT22;149;51.094;17.002;2023-03-05T02:51:01;2.40;99.90
324;DHT22;149;51.094;17.002;2023-03-05T02:53:28;2.30;99.90
324;DHT22;149;51.094;17.002;2023-03-05T02:55:55;2.40;99.90
324;DHT22;149;51.094;17.002;2023-03-05T02:58:22;2.30;99.90
324;DHT22;149;51.094;17.002;2023-03-05T03:00:49;2.20;99.90
324;DHT22;149;51.094;17.002;2023-03-05T03:03:16;2.00;99.90
324;DHT22;149;51.094;17.002;2023-03-05T03:05:43;1.90;99.90
324;DHT22;149;51.094;17.002;2023-03-05T03:08:09;1.90;99.90
324;DHT22;149;51.094;17.002;2023-03-05T03:10:37;1.80;99.90
324;DHT22;149;51.094;17.002;2023-03-05T03:13:04;1.80;99.90
324;DHT22;149;51.094;17.002;2023-03-05T03:15:31;1.80;99.90
324;DHT22;149;51.094;17.002;2023-03-05T03:17:58;2.00;99.90
324;DHT22;149;51.094;17.002;2023-03-05T03:20:25;2.10;99.90
324;DHT22;149;51.094;17.002;2023-03-05T03:22:52;2.50;99.90
324;DHT22;149;51.094;17.002;2023-03-05T03:25:21;2.30;99.90
324;DHT22;149;51.094;17.002;2023-03-05T03:27:49;2.40;99.90
324;DHT22;149;51.094;17.002;2023-03-05T03:30:16;2.60;99.90
324;DHT22;149;51.094;17.002;2023-03-05T03:32:43;2.60;99.90
324;DHT22;149;51.094;17.002;2023-03-05T03:35:12;2.70;99.90
324;DHT22;149;51.094;17.002;2023-03-05T03:37:39;2.60;99.90
324;DHT22;149;51.094;17.002;2023-03-05T03:40:07;2.40;99.90
324;DHT22;149;51.094;17.002;2023-03-05T03:42:34;2.70;99.90
324;DHT22;149;51.094;17.002;2023-03-05T03:45:02;2.80;99.90
324;DHT22;149;51.094;17.002;2023-03-05T03:47:29;2.80;99.90
324;DHT22;149;51.094;17.002;2023-03-05T03:49:56;2.60;99.90
324;DHT22;149;51.094;17.002;2023-03-05T03:52:25;2.70;99.90
324;DHT22;149;51.094;17.002;2023-03-05T03:54:52;2.70;99.90
324;DHT22;149;51.094;17.002;2023-03-05T03:57:21;2.60;99.90
324;DHT22;149;51.094;17.002;2023-03-05T03:59:48;2.70;99.90
324;DHT22;149;51.094;17.002;2023-03-05T04:02:16;2.80;99.90
324;DHT22;149;51.094;17.002;2023-03-05T04:04:44;2.80;99.90
324;DHT22;149;51.094;17.002;2023-03-05T04:07:11;2.80;99.90
324;DHT22;149;51.094;17.002;2023-03-05T04:09:38;2.80;99.90
324;DHT22;149;51.094;17.002;2023-03-05T04:12:05;2.70;99.90
324;DHT22;149;51.094;17.002;2023-03-05T04:14:32;2.80;99.90
324;DHT22;149;51.094;17.002;2023-03-05T04:17:00;2.60;99.90
324;DHT22;149;51.094;17.002;2023-03-05T04:19:26;2.50;99.90
324;DHT22;149;51.094;17.002;2023-03-05T04:21:57;2.30;99.90
324;DHT22;149;51.094;17.002;2023-03-05T04:24:24;2.50;99.90
324;DHT22;149;51.094;17.002;2023-03-05T04:26:51;2.60;99.90
324;DHT22;149;51.094;17.002;2023-03-05T04:29:19;2.50;99.90
324;DHT22;149;51.094;17.002;2023-03-05T04:31:46;2.50;99.90
324;DHT22;149;51.094;17.002;2023-03-05T04:34:13;2.80;99.90
324;DHT22;149;51.094;17.002;2023-03-05T04:36:40;2.70;99.90
324;DHT22;149;51.094;17.002;2023-03-05T04:39:07;2.60;99.90
324;DHT22;149;51.094;17.002;2023-03-05T04:41:34;2.60;99.90
324;DHT22;149;51.094;17.002;2023-03-05T04:44:01;2.50;99.90
324;DHT22;149;51.094;17.002;2023-03-05T04:46:28;2.40;99.90
324;DHT22;149;51.094;17.002;2023-03-05T04:48:56;2.50;99.90
324;DHT22;149;51.094;17.002;2023-03-05T04:51:24;2.60;99.90
324;DHT22;149;51.094;17.002;2023-03-05T04:53:51;2.40;99.90
324;DHT22;149;51.094;17.002;2023-03-05T04:56:17;2.50;99.90
324;DHT22;149;51.094;17.002;2023-03-05T04:58:45;2.30;99.90
324;DHT22;149;51.094;17.002;2023-03-05T05:01:13;2.10;99.90
324;DHT22;149;51.094;17.002;2023-03-05T05:03:40;2.20;99.90
324;DHT22;149;51.094;17.002;2023-03-05T05:06:07;2.50;99.90
324;DHT22;149;51.094;17.002;2023-03-05T05:08:34;2.60;99.90
324;DHT22;149;51.094;17.002;2023-03-05T05:11:04;2.50;99.90
324;DHT22;149;51.094;17.002;2023-03-05T05:13:32;2.60;99.90
324;DHT22;149;51.094;17.002;2023-03-05T05:16:00;2.60;99.90
324;DHT22;149;51.094;17.002;2023-03-05T05:18:27;2.50;99.90
324;DHT22;149;51.094;17.002;2023-03-05T05:20:54;2.50;99.90
324;DHT22;149;51.094;17.002;2023-03-05T05:23:21;2.50;99.90
324;DHT22;149;51.094;17.002;2023-03-05T05:25:58;2.50;99.90
324;DHT22;149;51.094;17.002;2023-03-05T05:28:27;2.50;99.90
324;DHT22;149;51.094;17.002;2023-03-05T05:30:54;2.60;99.90
324;DHT22;149;51.094;17.002;2023-03-05T05:33:24;2.50;99.90
324;DHT22;149;51.094;17.002;2023-03-05T05:35:51;2.40;99.90
324;DHT22;149;51.094;17.002;2023-03-05T05:38:18;2.40;99.90
324;DHT22;149;51.094;17.002;2023-03-05T05:40:45;2.50;99.90
324;DHT22;149;51.094;17.002;2023-03-05T05:43:12;2.40;99.90
324;DHT22;149;51.094;17.002;2023-03-05T05:45:39;2.40;99.90
324;DHT22;149;51.094;17.002;2023-03-05T05:48:07;2.40;99.90
324;DHT22;149;51.094;17.002;2023-03-05T05:50:34;2.50;99.90
324;DHT22;149;51.094;17.002;2023-03-05T05:53:01;2.40;99.90
324;DHT22;149;51.094;17.002;2023-03-05T05:55:27;2.60;99.90
324;DHT22;149;51.094;17.002;2023-03-05T05:57:55;2.60;99.90
324;DHT22;149;51.094;17.002;2023-03-05T06:00:22;2.80;99.90
324;DHT22;149;51.094;17.002;2023-03-05T06:02:49;2.80;99.90
324;DHT22;149;51.094;17.002;2023-03-05T06:05:16;2.80;99.90
324;DHT22;149;51.094;17.002;2023-03-05T06:07:43;2.50;99.90
324;DHT22;149;51.094;17.002;2023-03-05T06:10:10;2.40;99.90
324;DHT22;149;51.094;17.002;2023-03-05T06:12:40;2.30;99.90
324;DHT22;149;51.094;17.002;2023-03-05T06:15:07;2.20;99.90
324;DHT22;149;51.094;17.002;2023-03-05T06:17:34;2.10;99.90
324;DHT22;149;51.094;17.002;2023-03-05T06:20:01;2.10;99.90
324;DHT22;149;51.094;17.002;2023-03-05T06:22:30;2.10;99.90
324;DHT22;149;51.094;17.002;2023-03-05T06:24:57;2.20;99.90
324;DHT22;149;51.094;17.002;2023-03-05T06:27:24;2.20;99.90
324;DHT22;149;51.094;17.002;2023-03-05T06:29:54;2.30;99.90
324;DHT22;149;51.094;17.002;2023-03-05T06:32:22;2.40;99.90
324;DHT22;149;51.094;17.002;2023-03-05T06:34:49;2.50;99.90
324;DHT22;149;51.094;17.002;2023-03-05T06:37:17;2.60;99.90
324;DHT22;149;51.094;17.002;2023-03-05T06:39:44;2.50;99.90
324;DHT22;149;51.094;17.002;2023-03-05T06:42:11;2.40;99.90
324;DHT22;149;51.094;17.002;2023-03-05T06:44:42;2.30;99.90
324;DHT22;149;51.094;17.002;2023-03-05T06:47:09;2.20;99.90
324;DHT22;149;51.094;17.002;2023-03-05T06:49:38;2.10;99.90
324;DHT22;149;51.094;17.002;2023-03-05T06:52:06;2.10;99.90
324;DHT22;149;51.094;17.002;2023-03-05T06:54:36;2.10;99.90
324;DHT22;149;51.094;17.002;2023-03-05T06:57:03;2.10;99.90
324;DHT22;149;51.094;17.002;2023-03-05T06:59:30;2.20;99.90
324;DHT22;149;51.094;17.002;2023-03-05T07:01:57;2.30;99.90
324;DHT22;149;51.094;17.002;2023-03-05T07:04:24;2.30;99.90
324;DHT22;149;51.094;17.002;2023-03-05T07:06:51;2.40;99.90
324;DHT22;149;51.094;17.002;2023-03-05T07:09:18;2.60;99.90
324;DHT22;149;51.094;17.002;2023-03-05T07:11:46;2.70;99.90
324;DHT22;149;51.094;17.002;2023-03-05T07:14:12;2.80;99.90
324;DHT22;149;51.094;17.002;2023-03-05T07:16:39;2.80;99.90
324;DHT22;149;51.094;17.002;2023-03-05T07:19:06;2.70;99.90
324;DHT22;149;51.094;17.002;2023-03-05T07:21:34;2.80;99.90
324;DHT22;149;51.094;17.002;2023-03-05T07:24:05;2.80;99.90
324;DHT22;149;51.094;17.002;2023-03-05T07:26:35;2.90;99.90
324;DHT22;149;51.094;17.002;2023-03-05T07:29:02;3.00;99.90
324;DHT22;149;51.094;17.002;2023-03-05T07:31:29;3.00;99.90
324;DHT22;149;51.094;17.002;2023-03-05T07:33:59;3.00;99.90
324;DHT22;149;51.094;17.002;2023-03-05T07:36:29;2.90;99.90
324;DHT22;149;51.094;17.002;2023-03-05T07:38:56;2.90;99.90
324;DHT22;149;51.094;17.002;2023-03-05T07:41:23;2.80;99.90
324;DHT22;149;51.094;17.002;2023-03-05T07:43:52;3.00;99.90
324;DHT22;149;51.094;17.002;2023-03-05T07:46:22;3.10;99.90
324;DHT22;149;51.094;17.002;2023-03-05T07:48:49;3.10;99.90
324;DHT22;149;51.094;17.002;2023-03-05T07:51:18;3.20;99.90
324;DHT22;149;51.094;17.002;2023-03-05T07:53:47;3.20;99.90
324;DHT22;149;51.094;17.002;2023-03-05T07:56:23;3.30;99.90
324;DHT22;149;51.094;17.002;2023-03-05T07:58:51;3.30;99.90
324;DHT22;149;51.094;17.002;2023-03-05T08:01:21;3.50;99.90
324;DHT22;149;51.094;17.002;2023-03-05T08:03:48;3.60;99.90
324;DHT22;149;51.094;17.002;2023-03-05T08:06:15;3.70;99.90
324;DHT22;149;51.094;17.002;2023-03-05T08:08:43;3.90;99.90
324;DHT22;149;51.094;17.002;2023-03-05T08:11:12;3.90;99.90
324;DHT22;149;51.094;17.002;2023-03-05T08:13:40;4.00;99.90
324;DHT22;149;51.094;17.002;2023-03-05T08:16:13;4.30;99.90
324;DHT22;149;51.094;17.002;2023-03-05T08:18:41;4.20;99.90
324;DHT22;149;51.094;17.002;2023-03-05T08:21:23;4.10;99.90
324;DHT22;149;51.094;17.002;2023-03-05T08:23:53;3.80;99.90
324;DHT22;149;51.094;17.002;2023-03-05T08:26:21;3.30;99.90
324;DHT22;149;51.094;17.002;2023-03-05T08:28:49;3.10;99.90
324;DHT22;149;51.094;17.002;2023-03-05T08:31:18;2.90;99.90
324;DHT22;149;51.094;17.002;2023-03-05T08:33:47;2.80;99.90
324;DHT22;149;51.094;17.002;2023-03-05T08:36:14;2.90;99.90
324;DHT22;149;51.094;17.002;2023-03-05T08:38:41;3.10;99.90
324;DHT22;149;51.094;17.002;2023-03-05T08:41:10;3.10;99.90
324;DHT22;149;51.094;17.002;2023-03-05T08:43:37;3.20;99.90
324;DHT22;149;51.094;17.002;2023-03-05T08:46:04;3.30;99.90
324;DHT22;149;51.094;17.002;2023-03-05T08:48:32;3.50;99.90
324;DHT22;149;51.094;17.002;2023-03-05T08:51:07;3.50;99.90
324;DHT22;149;51.094;17.002;2023-03-05T08:53:34;3.70;99.90
324;DHT22;149;51.094;17.002;2023-03-05T08:56:02;3.70;99.90
324;DHT22;149;51.094;17.002;2023-03-05T08:58:29;3.90;99.90
324;DHT22;149;51.094;17.002;2023-03-05T09:00:56;4.00;99.90
324;DHT22;149;51.094;17.002;2023-03-05T09:03:23;4.10;99.90
324;DHT22;149;51.094;17.002;2023-03-05T09:05:50;4.20;99.90
324;DHT22;149;51.094;17.002;2023-03-05T09:08:17;4.10;99.90
324;DHT22;149;51.094;17.002;2023-03-05T09:10:45;4.00;99.90
324;DHT22;149;51.094;17.002;2023-03-05T09:13:12;3.80;99.90
324;DHT22;149;51.094;17.002;2023-03-05T09:15:39;3.80;99.90
324;DHT22;149;51.094;17.002;2023-03-05T09:18:06;3.60;99.90
324;DHT22;149;51.094;17.002;2023-03-05T09:20:35;3.50;99.90
324;DHT22;149;51.094;17.002;2023-03-05T09:23:02;3.20;99.90
324;DHT22;149;51.094;17.002;2023-03-05T09:25:29;3.00;99.90
324;DHT22;149;51.094;17.002;2023-03-05T09:27:56;2.90;99.90
324;DHT22;149;51.094;17.002;2023-03-05T09:30:23;3.10;99.90
324;DHT22;149;51.094;17.002;2023-03-05T09:32:50;3.40;99.90
324;DHT22;149;51.094;17.002;2023-03-05T09:35:17;3.60;99.90
324;DHT22;149;51.094;17.002;2023-03-05T09:37:45;3.90;99.90
324;DHT22;149;51.094;17.002;2023-03-05T09:40:16;4.20;99.90
324;DHT22;149;51.094;17.002;2023-03-05T09:42:57;4.50;99.90
324;DHT22;149;51.094;17.002;2023-03-05T09:53:20;4.50;99.90
324;DHT22;149;51.094;17.002;2023-03-05T09:55:54;4.50;99.90
324;DHT22;149;51.094;17.002;2023-03-05T09:58:53;4.40;99.90
324;DHT22;149;51.094;17.002;2023-03-05T10:01:29;4.30;99.90
324;DHT22;149;51.094;17.002;2023-03-05T10:04:07;4.70;99.90
324;DHT22;149;51.094;17.002;2023-03-05T10:06:43;5.00;99.90
324;DHT22;149;51.094;17.002;2023-03-05T10:14:37;5.40;99.90
324;DHT22;149;51.094;17.002;2023-03-05T10:23:27;5.30;99.90
324;DHT22;149;51.094;17.002;2023-03-05T10:33:47;5.50;99.90
324;DHT22;149;51.094;17.002;2023-03-05T10:41:59;5.30;99.90
324;DHT22;149;51.094;17.002;2023-03-05T10:44:38;5.20;99.90
324;DHT22;149;51.094;17.002;2023-03-05T10:49:55;4.70;99.90
324;DHT22;149;51.094;17.002;2023-03-05T10:52:35;4.60;99.90
324;DHT22;149;51.094;17.002;2023-03-05T10:55:14;4.60;99.90
324;DHT22;149;51.094;17.002;2023-03-05T10:57:42;4.50;99.90
324;DHT22;149;51.094;17.002;2023-03-05T11:00:22;4.30;99.90
324;DHT22;149;51.094;17.002;2023-03-05T11:02:56;4.00;99.90
324;DHT22;149;51.094;17.002;2023-03-05T11:05:47;3.90;99.90
324;DHT22;149;51.094;17.002;2023-03-05T11:13:32;3.80;99.90
324;DHT22;149;51.094;17.002;2023-03-05T11:16:01;3.90;99.90
324;DHT22;149;51.094;17.002;2023-03-05T11:18:30;4.10;99.90
324;DHT22;149;51.094;17.002;2023-03-05T11:21:09;4.20;99.90
324;DHT22;149;51.094;17.002;2023-03-05T11:23:36;4.20;99.90
324;DHT22;149;51.094;17.002;2023-03-05T11:26:18;4.10;99.90
324;DHT22;149;51.094;17.002;2023-03-05T11:36:23;4.50;99.90
324;DHT22;149;51.094;17.002;2023-03-05T11:38:56;4.60;99.90
324;DHT22;149;51.094;17.002;2023-03-05T11:41:27;4.70;99.90
324;DHT22;149;51.094;17.002;2023-03-05T11:43:55;5.00;99.90
324;DHT22;149;51.094;17.002;2023-03-05T11:46:24;5.10;99.90
324;DHT22;149;51.094;17.002;2023-03-05T11:48:53;5.30;99.90
324;DHT22;149;51.094;17.002;2023-03-05T11:51:58;5.60;99.90
324;DHT22;149;51.094;17.002;2023-03-05T11:54:22;5.90;99.90
324;DHT22;149;51.094;17.002;2023-03-05T11:56:50;6.10;99.90
324;DHT22;149;51.094;17.002;2023-03-05T11:59:31;6.00;99.90
324;DHT22;149;51.094;17.002;2023-03-05T12:02:00;5.90;99.90
324;DHT22;149;51.094;17.002;2023-03-05T12:04:27;5.70;99.90
324;DHT22;149;51.094;17.002;2023-03-05T12:07:00;5.60;99.90
324;DHT22;149;51.094;17.002;2023-03-05T12:09:51;5.50;99.90
324;DHT22;149;51.094;17.002;2023-03-05T12:12:41;5.30;99.90
324;DHT22;149;51.094;17.002;2023-03-05T12:23:16;4.40;99.90
324;DHT22;149;51.094;17.002;2023-03-05T12:25:53;4.70;99.90
324;DHT22;149;51.094;17.002;2023-03-05T12:33:44;5.60;99.90
324;DHT22;149;51.094;17.002;2023-03-05T12:38:51;6.10;99.90
324;DHT22;149;51.094;17.002;2023-03-05T12:46:38;5.50;99.90
324;DHT22;149;51.094;17.002;2023-03-05T12:51:50;4.00;99.90
324;DHT22;149;51.094;17.002;2023-03-05T12:54:37;3.50;99.90
324;DHT22;149;51.094;17.002;2023-03-05T12:57:22;3.30;99.90
324;DHT22;149;51.094;17.002;2023-03-05T13:00:03;3.30;99.90
324;DHT22;149;51.094;17.002;2023-03-05T13:02:43;3.10;99.90
324;DHT22;149;51.094;17.002;2023-03-05T13:05:19;3.10;99.90
324;DHT22;149;51.094;17.002;2023-03-05T13:07:48;3.10;99.90
324;DHT22;149;51.094;17.002;2023-03-05T13:10:28;3.10;99.90
324;DHT22;149;51.094;17.002;2023-03-05T13:12:56;3.10;99.90
324;DHT22;149;51.094;17.002;2023-03-05T13:15:25;3.00;99.90
324;DHT22;149;51.094;17.002;2023-03-05T13:17:56;3.10;99.90
324;DHT22;149;51.094;17.002;2023-03-05T13:20:38;3.00;99.90
324;DHT22;149;51.094;17.002;2023-03-05T13:26:12;2.80;99.90
324;DHT22;149;51.094;17.002;2023-03-05T13:28:44;2.60;99.90
324;DHT22;149;51.094;17.002;2023-03-05T13:31:17;2.40;99.90
324;DHT22;149;51.094;17.002;2023-03-05T13:33:56;2.30;99.90
324;DHT22;149;51.094;17.002;2023-03-05T13:36:24;2.30;99.90
324;DHT22;149;51.094;17.002;2023-03-05T13:38:52;2.30;99.90
324;DHT22;149;51.094;17.002;2023-03-05T13:41:23;2.40;99.90
324;DHT22;149;51.094;17.002;2023-03-05T13:44:00;2.40;99.90
324;DHT22;149;51.094;17.002;2023-03-05T13:46:35;2.40;99.90
324;DHT22;149;51.094;17.002;2023-03-05T13:49:24;2.30;99.90
324;DHT22;149;51.094;17.002;2023-03-05T13:51:53;2.20;99.90
324;DHT22;149;51.094;17.002;2023-03-05T13:54:23;2.30;99.90
324;DHT22;149;51.094;17.002;2023-03-05T13:56:56;2.30;99.90
324;DHT22;149;51.094;17.002;2023-03-05T13:59:27;2.40;99.90
324;DHT22;149;51.094;17.002;2023-03-05T14:01:57;2.40;99.90
324;DHT22;149;51.094;17.002;2023-03-05T14:04:35;2.50;99.90
324;DHT22;149;51.094;17.002;2023-03-05T14:07:04;2.50;99.90
324;DHT22;149;51.094;17.002;2023-03-05T14:09:42;2.60;99.90
324;DHT22;149;51.094;17.002;2023-03-05T14:15:01;2.80;99.90
324;DHT22;149;51.094;17.002;2023-03-05T14:17:40;3.00;99.90
324;DHT22;149;51.094;17.002;2023-03-05T14:22:43;3.40;99.90
324;DHT22;149;51.094;17.002;2023-03-05T14:25:27;3.40;99.90
324;DHT22;149;51.094;17.002;2023-03-05T14:27:56;3.40;99.90
324;DHT22;149;51.094;17.002;2023-03-05T14:30:24;3.50;99.90
324;DHT22;149;51.094;17.002;2023-03-05T14:32:54;3.50;99.90
324;DHT22;149;51.094;17.002;2023-03-05T14:35:24;3.60;99.90
324;DHT22;149;51.094;17.002;2023-03-05T14:37:54;3.60;99.90
324;DHT22;149;51.094;17.002;2023-03-05T14:40:32;3.70;99.90
324;DHT22;149;51.094;17.002;2023-03-05T14:43:04;3.70;99.90
324;DHT22;149;51.094;17.002;2023-03-05T14:45:41;3.80;99.90
324;DHT22;149;51.094;17.002;2023-03-05T14:48:11;3.70;99.90
324;DHT22;149;51.094;17.002;2023-03-05T14:50:47;3.90;99.90
324;DHT22;149;51.094;17.002;2023-03-05T14:53:25;4.00;99.90
324;DHT22;149;51.094;17.002;2023-03-05T14:55:55;3.90;99.90
324;DHT22;149;51.094;17.002;2023-03-05T14:58:25;3.80;99.90
324;DHT22;149;51.094;17.002;2023-03-05T15:00:53;3.90;99.90
324;DHT22;149;51.094;17.002;2023-03-05T15:03:21;4.00;99.90
324;DHT22;149;51.094;17.002;2023-03-05T15:05:51;4.20;99.90
324;DHT22;149;51.094;17.002;2023-03-05T15:08:28;4.20;99.90
324;DHT22;149;51.094;17.002;2023-03-05T15:10:55;4.10;99.90
324;DHT22;149;51.094;17.002;2023-03-05T15:13:23;4.40;99.90
324;DHT22;149;51.094;17.002;2023-03-05T15:15:50;4.30;99.90
324;DHT22;149;51.094;17.002;2023-03-05T15:18:20;4.10;99.90
324;DHT22;149;51.094;17.002;2023-03-05T15:20:47;3.90;99.90
324;DHT22;149;51.094;17.002;2023-03-05T15:23:15;3.60;99.90
324;DHT22;149;51.094;17.002;2023-03-05T15:25:42;3.40;99.90
324;DHT22;149;51.094;17.002;2023-03-05T15:28:09;3.20;99.90
324;DHT22;149;51.094;17.002;2023-03-05T15:30:38;3.10;99.90
324;DHT22;149;51.094;17.002;2023-03-05T15:33:16;3.00;99.90
324;DHT22;149;51.094;17.002;2023-03-05T15:35:43;3.00;99.90
324;DHT22;149;51.094;17.002;2023-03-05T15:38:10;3.00;99.90
324;DHT22;149;51.094;17.002;2023-03-05T15:40:37;3.00;99.90
324;DHT22;149;51.094;17.002;2023-03-05T15:43:04;3.00;99.90
324;DHT22;149;51.094;17.002;2023-03-05T15:45:31;2.90;99.90
324;DHT22;149;51.094;17.002;2023-03-05T15:47:57;2.80;99.90
324;DHT22;149;51.094;17.002;2023-03-05T15:50:24;2.80;99.90
324;DHT22;149;51.094;17.002;2023-03-05T15:52:51;2.80;99.90
324;DHT22;149;51.094;17.002;2023-03-05T15:55:18;2.70;99.90
324;DHT22;149;51.094;17.002;2023-03-05T15:57:50;2.80;99.90
324;DHT22;149;51.094;17.002;2023-03-05T16:00:20;2.80;99.90
324;DHT22;149;51.094;17.002;2023-03-05T16:02:51;2.70;99.90
324;DHT22;149;51.094;17.002;2023-03-05T16:05:18;2.90;99.90
324;DHT22;149;51.094;17.002;2023-03-05T16:07:46;3.10;99.90
324;DHT22;149;51.094;17.002;2023-03-05T16:10:19;2.90;99.90
324;DHT22;149;51.094;17.002;2023-03-05T16:12:50;3.00;99.90
324;DHT22;149;51.094;17.002;2023-03-05T16:15:20;3.10;99.90
324;DHT22;149;51.094;17.002;2023-03-05T16:17:51;3.20;99.90
324;DHT22;149;51.094;17.002;2023-03-05T16:20:20;3.00;99.90
324;DHT22;149;51.094;17.002;2023-03-05T16:22:48;3.00;99.90
324;DHT22;149;51.094;17.002;2023-03-05T16:25:16;2.90;99.90
324;DHT22;149;51.094;17.002;2023-03-05T16:27:44;3.10;99.90
324;DHT22;149;51.094;17.002;2023-03-05T16:30:13;3.30;99.90
324;DHT22;149;51.094;17.002;2023-03-05T16:32:40;3.30;99.90
324;DHT22;149;51.094;17.002;2023-03-05T16:35:07;3.30;99.90
324;DHT22;149;51.094;17.002;2023-03-05T16:37:38;3.50;99.90
324;DHT22;149;51.094;17.002;2023-03-05T16:40:06;3.50;99.90
324;DHT22;149;51.094;17.002;2023-03-05T16:42:34;3.40;99.90
324;DHT22;149;51.094;17.002;2023-03-05T16:45:02;3.10;99.90
324;DHT22;149;51.094;17.002;2023-03-05T16:47:29;3.00;99.90
324;DHT22;149;51.094;17.002;2023-03-05T16:49:56;3.30;99.90
324;DHT22;149;51.094;17.002;2023-03-05T16:52:23;3.30;99.90
324;DHT22;149;51.094;17.002;2023-03-05T16:54:50;3.10;99.90
324;DHT22;149;51.094;17.002;2023-03-05T16:57:17;2.90;99.90
324;DHT22;149;51.094;17.002;2023-03-05T16:59:45;2.80;99.90
324;DHT22;149;51.094;17.002;2023-03-05T17:02:12;2.70;99.90
324;DHT22;149;51.094;17.002;2023-03-05T17:04:43;2.40;99.90
324;DHT22;149;51.094;17.002;2023-03-05T17:07:10;2.40;99.90
324;DHT22;149;51.094;17.002;2023-03-05T17:09:37;2.40;99.90
324;DHT22;149;51.094;17.002;2023-03-05T17:12:07;2.30;99.90
324;DHT22;149;51.094;17.002;2023-03-05T17:14:34;2.00;99.90
324;DHT22;149;51.094;17.002;2023-03-05T17:17:01;1.60;99.90
324;DHT22;149;51.094;17.002;2023-03-05T17:19:29;1.60;99.90
324;DHT22;149;51.094;17.002;2023-03-05T17:21:56;1.60;99.90
324;DHT22;149;51.094;17.002;2023-03-05T17:24:24;1.50;99.90
324;DHT22;149;51.094;17.002;2023-03-05T17:26:54;1.50;99.90
324;DHT22;149;51.094;17.002;2023-03-05T17:29:24;1.40;99.90
324;DHT22;149;51.094;17.002;2023-03-05T17:31:51;1.30;99.90
324;DHT22;149;51.094;17.002;2023-03-05T17:34:20;1.20;99.90
324;DHT22;149;51.094;17.002;2023-03-05T17:37:00;1.20;99.90
324;DHT22;149;51.094;17.002;2023-03-05T17:39:28;1.10;99.90
324;DHT22;149;51.094;17.002;2023-03-05T17:41:58;1.00;99.90
324;DHT22;149;51.094;17.002;2023-03-05T17:44:24;1.00;99.90
324;DHT22;149;51.094;17.002;2023-03-05T17:46:51;1.20;99.90
324;DHT22;149;51.094;17.002;2023-03-05T17:49:18;1.30;99.90
324;DHT22;149;51.094;17.002;2023-03-05T17:51:47;1.40;99.90
324;DHT22;149;51.094;17.002;2023-03-05T17:54:14;1.30;99.90
324;DHT22;149;51.094;17.002;2023-03-05T17:56:41;1.30;99.90
324;DHT22;149;51.094;17.002;2023-03-05T17:59:08;1.40;99.90
324;DHT22;149;51.094;17.002;2023-03-05T18:01:39;1.60;99.90
324;DHT22;149;51.094;17.002;2023-03-05T18:04:06;1.60;99.90
324;DHT22;149;51.094;17.002;2023-03-05T18:06:34;1.60;99.90
324;DHT22;149;51.094;17.002;2023-03-05T18:09:01;1.50;99.90
324;DHT22;149;51.094;17.002;2023-03-05T18:11:28;1.70;99.90